Flight Track Log - Related Links

Times and Time Zones

All times are in EDT time to prevent confusion due to time zone crossing. See the DAL369 flight status page for this flight to view local times or setup timezone preferences in your user account.

Time Position Orientation Groundspeed Altitude Reporting Facility
EDT Latitude Longitude Course Direction KTS MPH feet Rate Location/Type
Fri 07:41:20 PM 33.6333 -84.4833 199° South 175 201 2,500  Level Atlanta TRACON
Fri 07:42:20 PM 33.6333 -84.5500 270° West 235 270 3,200 1,450 Climbing Atlanta TRACON
Fri 07:43:00 PM 33.3649 -84.2916 194° South  Level FlightAware Approximate
Fri 07:43:20 PM 33.5667 -84.5833 203° Southwest 273 314 5,400  Level Atlanta TRACON
Fri 07:44:00 PM 33.2445 -84.3268 194° South  Level FlightAware Approximate
Fri 07:44:20 PM 33.5000 -84.5833 180° South 281 323 7,700  Level Atlanta TRACON
Fri 07:45:00 PM 33.1241 -84.3618 194° South  Level FlightAware Approximate
Fri 07:45:41 PM 33.3925 -84.5539 167° South 298 343 10,300  Level Atlanta Center
Fri 07:46:00 PM 33.0039 -84.3951 199° South  Level FlightAware Approximate
Fri 07:46:41 PM 33.2964 -84.5283 167° South 304 350 11,200  Level Atlanta Center
Fri 07:47:41 PM 33.1964 -84.4981 166° South 346 398 12,000 950 Climbing Atlanta Center
Fri 07:48:41 PM 33.0858 -84.4653 166° South 393 452 13,100 1,300 Climbing Atlanta Center
Fri 07:49:41 PM 32.9692 -84.4400 170° South 413 475 14,600 1,450 Climbing Atlanta Center
Fri 07:50:41 PM 32.8503 -84.4197 172° South 428 493 16,000 1,250 Climbing Atlanta Center
Fri 07:51:41 PM 32.7439 -84.3994 171° South 434 499 17,100 1,150 Climbing Atlanta Center
Fri 07:52:41 PM 32.6208 -84.3767 171° South 434 499 18,300 1,150 Climbing Atlanta Center
Fri 07:53:41 PM 32.4997 -84.3542 171° South 439 505 19,400 1,150 Climbing Atlanta Center
Fri 07:54:41 PM 32.3767 -84.3339 172° South 445 512 20,600 1,000 Climbing Atlanta Center
Fri 07:55:41 PM 32.2494 -84.3114 171° South 450 518 21,400 850 Climbing Atlanta Center
Fri 07:56:41 PM 32.1219 -84.2914 172° South 461 531 22,300 828 Climbing Atlanta Center
Fri 07:58:06 PM 31.9400 -84.2586 171° South 475 547 23,400 786 Climbing Jacksonville Center
Fri 07:59:06 PM 31.8044 -84.2347 171° South 481 554 24,200 750 Climbing Jacksonville Center
Fri 08:00:06 PM 31.6711 -84.2108 171° South 481 554 24,900 650 Climbing Jacksonville Center
Fri 08:01:06 PM 31.5336 -84.1917 173° South 486 559 25,500 600 Climbing Jacksonville Center
Fri 08:02:06 PM 31.3975 -84.2117 187° South 486 559 26,100 800 Climbing Jacksonville Center
Fri 08:03:06 PM 31.2469 -84.2339 187° South 494 568 27,100 950 Climbing Jacksonville Center
Fri 08:04:06 PM 31.1111 -84.2539 187° South 499 574 28,000 900 Climbing Jacksonville Center
Fri 08:05:06 PM 30.9794 -84.2739 187° South 499 574 28,900 1,150 Climbing Jacksonville Center
Fri 08:06:06 PM 30.8497 -84.2936 187° South 493 567 30,300 950 Climbing Jacksonville Center
Fri 08:07:06 PM 30.7222 -84.3136 188° South 481 554 30,800 650 Climbing Jacksonville Center
Fri 08:08:06 PM 30.5944 -84.3358 189° South 476 548 31,600 500 Climbing Jacksonville Center
Fri 08:09:06 PM 30.4775 -84.3483 185° South 470 541 31,800 450 Climbing Jacksonville Center
Fri 08:10:06 PM 30.3497 -84.3681 188° South 465 535 32,500 600 Climbing Jacksonville Center
Fri 08:11:06 PM 30.2222 -84.3853 187° South 465 535 33,000 200 Climbing Jacksonville Center
Fri 08:12:06 PM 30.0883 -84.4075 188° South 470 541 32,900  Descending Jacksonville Center
Fri 08:13:06 PM 29.9567 -84.4244 186° South 475 547 33,000  Climbing Jacksonville Center
Fri 08:14:06 PM 29.8081 -84.4483 188° South 486 559 32,900 -50 Descending Jacksonville Center
Fri 08:15:06 PM 29.6700 -84.4703 188° South 494 568 32,900 50 Level Jacksonville Center
Fri 08:16:06 PM 29.5342 -84.4894 187° South 499 574 33,000  Climbing Jacksonville Center
Fri 08:17:06 PM 29.4003 -84.5086 187° South 499 574 32,900  Descending Jacksonville Center
Fri 08:18:06 PM 29.2644 -84.5278 187° South 499 574 33,000  Climbing Jacksonville Center
Fri 08:19:06 PM 29.1283 -84.5494 188° South 499 574 32,900 -50 Descending Jacksonville Center
Fri 08:20:06 PM 28.9925 -84.5686 187° South 499 574 32,900  Level Jacksonville Center
Fri 08:21:06 PM 28.8525 -84.5900 188° South 505 581 32,900 34 Level Jacksonville Center
Fri 08:23:03 PM 28.5883 -84.6289 187° South 511 588 33,000  Climbing Miami Center
Fri 08:24:03 PM 28.4500 -84.6450 186° South 511 588 32,900  Descending Miami Center
Fri 08:25:03 PM 28.3114 -84.6636 187° South 506 582 33,000 50 Climbing Miami Center
Fri 08:26:03 PM 28.1789 -84.6875 189° South 501 577 33,000 -50 Level Miami Center
Fri 08:27:03 PM 28.0444 -84.7039 186° South 496 571 32,900 -50 Descending Miami Center
Fri 08:28:03 PM 27.9183 -84.7233 188° South 496 571 32,900  Level Miami Center
Fri 08:29:03 PM 27.7861 -84.7422 187° South 496 571 32,900 -100 Level Miami Center
Fri 08:30:03 PM 27.6433 -84.7606 186° South 497 572 32,700 -533 Descending Miami Center
Fri 08:30:33 PM 27.5858 -84.7731 191° South 483 556 32,100 -457 Descending Houston Center
Fri 08:31:35 PM 27.4578 -84.8231 199° South 490 564 32,000 -48 Descending Houston Center
Fri 08:32:37 PM 27.3467 -84.9053 213° Southwest 480 552 32,000 -194 Level Houston Center
Fri 08:33:39 PM 27.2425 -84.9964 218° Southwest 477 549 31,600 -774 Descending Houston Center
Fri 08:34:41 PM 27.1164 -85.1008 216° Southwest 470 541 30,400 -829 Descending Houston Center
Fri 08:35:42 PM 27.0128 -85.1881 217° Southwest 468 539 29,900 -195 Descending Houston Center
Fri 08:36:44 PM 26.9092 -85.2747 217° Southwest 465 535 30,000 48 Climbing Houston Center
Fri 08:37:46 PM 26.8042 -85.3614 216° Southwest 468 539 30,000  Level Houston Center
Fri 08:38:48 PM 26.7006 -85.4483 217° Southwest 467 537 30,000  Level Houston Center
Fri 08:39:49 PM 26.5986 -85.5317 216° Southwest 467 537 30,000 -49 Level Houston Center
Fri 08:40:51 PM 26.4900 -85.6222 217° Southwest 473 544 29,900 -48 Descending Houston Center
Fri 08:41:53 PM 26.3594 -85.7272 216° Southwest 481 554 29,900  Level Houston Center
Fri 08:42:54 PM 26.2531 -85.8175 217° Southwest 482 555 29,900  Level Houston Center
Fri 08:43:56 PM 26.1450 -85.9047 216° Southwest 479 551 29,900  Level Houston Center
Fri 08:44:58 PM 26.0372 -85.9922 216° Southwest 480 552 29,900  Level Houston Center
Fri 08:45:59 PM 25.9278 -86.0722 213° Southwest 475 547 29,900  Level Houston Center
Fri 08:47:00 PM 25.8084 -86.1175 212° Southwest  Level FlightAware Approximate
Fri 08:54:00 PM 25.0712 -86.6142 211° Southwest  Level FlightAware Approximate
Fri 08:55:00 PM 24.9656 -86.6843 211° Southwest  Level FlightAware Approximate
Fri 08:56:00 PM 24.8599 -86.7542 211° Southwest  Level FlightAware Approximate
Fri 08:57:00 PM 24.7542 -86.8241 211° Southwest  Level FlightAware Approximate
Fri 08:58:00 PM 24.6484 -86.8938 211° Southwest  Level FlightAware Approximate
Fri 08:59:00 PM 24.5426 -86.9634 211° Southwest  Level FlightAware Approximate
Fri 09:00:00 PM 24.4368 -87.0328 211° Southwest  Level FlightAware Approximate
Fri 09:01:00 PM 24.3309 -87.1022 211° Southwest  Level FlightAware Approximate
Fri 09:02:00 PM 24.2199 -87.1069 159° South  Level FlightAware Approximate
Fri 09:03:00 PM 24.1047 -87.0589 159° South  Level FlightAware Approximate
Fri 09:04:00 PM 23.9920 -87.0042 155° Southeast  Level FlightAware Approximate
Fri 09:05:00 PM 23.8799 -86.9481 155° Southeast  Level FlightAware Approximate
Fri 09:06:00 PM 23.7678 -86.8922 155° Southeast  Level FlightAware Approximate
Fri 09:07:00 PM 23.6543 -86.8396 158° South  Level FlightAware Approximate
Fri 09:08:00 PM 23.5398 -86.7899 158° South  Level FlightAware Approximate
Fri 09:09:00 PM 23.4252 -86.7403 158° South  Level FlightAware Approximate
Fri 09:10:00 PM 23.3106 -86.6908 158° South  Level FlightAware Approximate
Fri 09:11:00 PM 23.1960 -86.6414 158° South  Level FlightAware Approximate
Fri 09:12:00 PM 23.0814 -86.5921 158° South  Level FlightAware Approximate
Fri 09:13:00 PM 22.9667 -86.5429 158° South  Level FlightAware Approximate
Fri 09:14:00 PM 22.8521 -86.4937 158° South  Level FlightAware Approximate
Fri 09:15:00 PM 22.7376 -86.4443 157° South  Level FlightAware Approximate
Fri 09:16:00 PM 22.6241 -86.3920 157° South  Level FlightAware Approximate
Fri 09:17:00 PM 22.5106 -86.3398 157° South  Level FlightAware Approximate
Fri 09:18:00 PM 22.3972 -86.2877 157° South  Level FlightAware Approximate
Fri 09:19:00 PM 22.2837 -86.2357 157° South  Level FlightAware Approximate
Fri 09:20:00 PM 22.1702 -86.1838 157° South  Level FlightAware Approximate
Fri 09:21:00 PM 22.0554 -86.1314 157° South  Level FlightAware Approximate
Fri 09:22:00 PM 21.9406 -86.0791 157° South  Level FlightAware Approximate
Fri 09:23:00 PM 21.8256 -86.0275 157° South  Level FlightAware Approximate
Fri 09:24:00 PM 21.7106 -85.9760 157° South  Level FlightAware Approximate
Fri 09:25:00 PM 21.5956 -85.9245 157° South  Level FlightAware Approximate
Fri 09:26:00 PM 21.4805 -85.8732 157° South  Level FlightAware Approximate
Fri 09:27:00 PM 21.3654 -85.8219 157° South  Level FlightAware Approximate
Fri 09:28:00 PM 21.2504 -85.7707 157° South  Level FlightAware Approximate
Fri 09:29:00 PM 21.1353 -85.7196 157° South  Level FlightAware Approximate
Fri 09:30:00 PM 21.0201 -85.6685 158° South  Level FlightAware Approximate
Fri 09:31:00 PM 20.9050 -85.6176 158° South  Level FlightAware Approximate
Fri 09:32:00 PM 20.7899 -85.5667 158° South  Level FlightAware Approximate
Fri 09:33:00 PM 20.6747 -85.5158 158° South  Level FlightAware Approximate
Fri 09:34:00 PM 20.5595 -85.4651 158° South  Level FlightAware Approximate
Fri 09:35:00 PM 20.4443 -85.4145 158° South  Level FlightAware Approximate
Fri 09:36:00 PM 20.3291 -85.3639 158° South  Level FlightAware Approximate
Fri 09:37:00 PM 20.2139 -85.3134 158° South  Level FlightAware Approximate
Fri 09:38:00 PM 20.0989 -85.2660 155° Southeast  Level FlightAware Approximate
Fri 09:39:00 PM 19.9862 -85.2095 155° Southeast  Level FlightAware Approximate
Fri 09:40:00 PM 19.8735 -85.1531 155° Southeast  Level FlightAware Approximate
Fri 09:41:00 PM 19.7607 -85.0968 155° Southeast  Level FlightAware Approximate
Fri 09:42:00 PM 19.6480 -85.0405 155° Southeast  Level FlightAware Approximate
Fri 09:43:00 PM 19.5352 -84.9844 155° Southeast  Level FlightAware Approximate
Fri 09:44:00 PM 19.4223 -84.9285 155° Southeast  Level FlightAware Approximate
Fri 09:45:00 PM 19.3094 -84.8727 155° Southeast  Level FlightAware Approximate
Fri 09:46:00 PM 19.1964 -84.8170 155° Southeast  Level FlightAware Approximate
Fri 09:47:00 PM 19.0835 -84.7613 155° Southeast  Level FlightAware Approximate
Fri 09:48:00 PM 18.9705 -84.7058 155° Southeast  Level FlightAware Approximate
Fri 09:49:00 PM 18.8575 -84.6503 155° Southeast  Level FlightAware Approximate
Fri 09:50:00 PM 18.7445 -84.5948 155° Southeast  Level FlightAware Approximate
Fri 09:51:00 PM 18.6315 -84.5395 155° Southeast  Level FlightAware Approximate
Fri 09:52:00 PM 18.5185 -84.4842 155° Southeast  Level FlightAware Approximate
Fri 09:53:00 PM 18.4037 -84.4331 157° South  Level FlightAware Approximate
Fri 09:54:00 PM 18.2901 -84.3795 155° Southeast  Level FlightAware Approximate
Fri 09:55:00 PM 18.1769 -84.3246 155° Southeast  Level FlightAware Approximate
Fri 09:56:00 PM 18.0637 -84.2698 155° Southeast  Level FlightAware Approximate
Fri 09:57:00 PM 17.9505 -84.2151 155° Southeast  Level FlightAware Approximate
Fri 09:58:00 PM 17.8373 -84.1604 155° Southeast  Level FlightAware Approximate
Fri 09:59:00 PM 17.7241 -84.1058 155° Southeast  Level FlightAware Approximate
Fri 10:00:00 PM 17.6109 -84.0513 155° Southeast  Level FlightAware Approximate
Fri 10:01:00 PM 17.4976 -83.9969 155° Southeast  Level FlightAware Approximate
Fri 10:02:00 PM 17.3841 -83.9568 202° Southwest  Level FlightAware Approximate
Fri 10:03:00 PM 17.2686 -84.0058 202° Southwest  Level FlightAware Approximate
Fri 10:04:00 PM 17.1531 -84.0547 202° Southwest  Level FlightAware Approximate
Fri 10:05:00 PM 17.0376 -84.1035 202° Southwest  Level FlightAware Approximate
Fri 10:06:00 PM 16.9221 -84.1523 202° Southwest  Level FlightAware Approximate
Fri 10:07:00 PM 16.8053 -84.2016 202° Southwest  Level FlightAware Approximate
Fri 10:08:00 PM 16.6885 -84.2508 202° Southwest  Level FlightAware Approximate
Fri 10:09:00 PM 16.5717 -84.2999 202° Southwest  Level FlightAware Approximate
Fri 10:10:00 PM 16.4549 -84.3490 202° Southwest  Level FlightAware Approximate
Fri 10:11:00 PM 16.3381 -84.3980 202° Southwest  Level FlightAware Approximate
Fri 10:12:00 PM 16.2213 -84.4470 202° Southwest  Level FlightAware Approximate
Fri 10:13:00 PM 16.1045 -84.4960 202° Southwest  Level FlightAware Approximate
Fri 10:14:00 PM 15.9877 -84.5450 202° Southwest  Level FlightAware Approximate
Fri 10:15:00 PM 15.8709 -84.5938 202° Southwest  Level FlightAware Approximate
Fri 10:16:00 PM 15.7541 -84.6427 202° Southwest  Level FlightAware Approximate
Fri 10:17:00 PM 15.6372 -84.6914 202° Southwest  Level FlightAware Approximate
Fri 10:18:00 PM 15.5208 -84.7412 203° Southwest  Level FlightAware Approximate
Fri 10:19:00 PM 15.4045 -84.7912 202° Southwest  Level FlightAware Approximate
Fri 10:20:00 PM 15.2881 -84.8411 202° Southwest  Level FlightAware Approximate
Fri 10:21:00 PM 15.1717 -84.8909 202° Southwest  Level FlightAware Approximate
Fri 10:22:00 PM 15.0553 -84.9407 202° Southwest  Level FlightAware Approximate
Fri 10:23:00 PM 14.9389 -84.9905 202° Southwest  Level FlightAware Approximate
Fri 10:24:00 PM 14.8226 -85.0403 203° Southwest  Level FlightAware Approximate
Fri 10:25:00 PM 14.7058 -85.0890 202° Southwest  Level FlightAware Approximate
Fri 10:26:00 PM 14.5889 -85.1374 202° Southwest  Level FlightAware Approximate
Fri 10:27:00 PM 14.4720 -85.1858 202° Southwest  Level FlightAware Approximate
Fri 10:28:00 PM 14.3551 -85.2340 202° Southwest  Level FlightAware Approximate
Fri 10:29:00 PM 14.2382 -85.2823 202° Southwest  Level FlightAware Approximate
Fri 10:30:00 PM 14.1213 -85.3305 202° Southwest  Level FlightAware Approximate
Fri 10:31:00 PM 14.0045 -85.3791 203° Southwest  Level FlightAware Approximate
Fri 10:32:00 PM 13.8882 -85.4289 203° Southwest  Level FlightAware Approximate
Fri 10:33:00 PM 13.7727 -85.4803 206° Southwest  Level FlightAware Approximate
Fri 10:34:00 PM 13.6583 -85.5346 204° Southwest  Level FlightAware Approximate
Fri 10:35:00 PM 13.5435 -85.5876 204° Southwest  Level FlightAware Approximate
Fri 10:36:00 PM 13.4255 -85.6326 199° South  Level FlightAware Approximate
Fri 10:37:00 PM 13.3065 -85.6751 199° South  Level FlightAware Approximate
Fri 10:38:00 PM 13.1898 -85.7235 203° Southwest  Level FlightAware Approximate
Fri 10:39:00 PM 13.0736 -85.7732 203° Southwest  Level FlightAware Approximate
Fri 10:40:00 PM 12.9582 -85.8251 204° Southwest  Level FlightAware Approximate
Fri 10:41:00 PM 12.8426 -85.8763 201° Southwest  Level FlightAware Approximate
Fri 10:42:00 PM 12.7253 -85.9232 201° Southwest  Level FlightAware Approximate
Fri 10:43:00 PM 12.6085 -85.9715 202° Southwest  Level FlightAware Approximate
Fri 10:44:00 PM 12.4916 -86.0194 198° South  Level FlightAware Approximate
Fri 10:45:00 PM 12.3719 -86.0594 198° South  Level FlightAware Approximate
Fri 10:46:00 PM 12.2694 -86.1156 201° Southwest  Level FlightAware Approximate
Fri 10:47:00 PM 12.1511 -86.1578 206° Southwest  Level FlightAware Approximate
Fri 10:48:00 PM 12.1500 -86.1500 44° Northeast  Level FlightAware Approximate
Fri 10:49:00 PM 12.1415 -86.1682 44° Northeast  Level Estimated
Fri 10:50:00 PM 12.1415 -86.1682 44° Northeast  Level Estimated
Fri 10:51:00 PM 12.1415 -86.1682 44° Northeast  Level Estimated
Fri 10:52:00 PM 12.1415 -86.1682 44° Northeast  Level Estimated
Fri 10:53:00 PM 12.1415 -86.1682 44° Northeast  Level Estimated
Fri 10:54:00 PM 12.1415 -86.1682 44° Northeast  Level Estimated
Fri 10:55:00 PM 12.1415 -86.1682 44° Northeast  Level Estimated
Fri 10:56:00 PM 12.1415 -86.1682 44° Northeast  Level Estimated
Fri 10:57:00 PM 12.1415 -86.1682 44° Northeast  Level Estimated
Fri 10:58:00 PM 12.1415 -86.1682 44° Northeast  Level Estimated
Fri 10:59:00 PM 12.1415 -86.1682 44° Northeast  Level Estimated

Login

Don't have an account? Register now (free) for customized features, flight alerts, and more!